createdAt,value
2018-06-20T04:58:50.033Z,19.40
2018-06-20T05:01:18.554Z,20.40
2018-06-20T05:03:47.195Z,20.40
2018-06-20T05:06:15.743Z,20.40
2018-06-20T05:08:44.242Z,20.40
2018-06-20T05:11:12.772Z,20.40
2018-06-20T05:13:42.351Z,20.50
2018-06-20T05:16:10.944Z,20.50
2018-06-20T05:18:39.492Z,20.60
2018-06-20T05:21:08.035Z,20.70
2018-06-20T05:23:36.695Z,20.80
2018-06-20T05:28:33.532Z,20.90
2018-06-20T05:31:02.088Z,21.00
2018-06-20T05:33:30.692Z,21.10
2018-06-20T05:35:59.239Z,21.20
2018-06-20T05:38:27.750Z,21.30
2018-06-20T05:40:56.414Z,21.40
2018-06-20T05:43:25.058Z,21.50
2018-06-20T05:45:53.547Z,21.50
2018-06-20T05:48:22.048Z,21.60
2018-06-20T05:50:50.559Z,21.70
2018-06-20T05:53:19.176Z,21.80
2018-06-20T05:55:47.682Z,22.00
2018-06-20T05:58:16.276Z,22.10
2018-06-20T06:00:44.836Z,22.20
2018-06-20T06:03:13.481Z,22.40
2018-06-20T06:05:42.415Z,22.50
2018-06-20T06:08:12.295Z,22.60
2018-06-20T06:10:40.806Z,22.70
2018-06-20T06:13:09.389Z,22.80
2018-06-20T06:15:37.960Z,22.90
2018-06-20T06:18:06.492Z,22.90
2018-06-20T06:20:35.040Z,22.80
2018-06-20T06:23:03.662Z,22.80
2018-06-20T06:25:32.220Z,22.80
2018-06-20T06:28:00.716Z,22.70
2018-06-20T06:30:29.251Z,22.70
2018-06-20T06:32:57.861Z,22.70
2018-06-20T06:35:26.338Z,22.80
2018-06-20T06:37:54.887Z,22.90
2018-06-20T06:40:23.444Z,22.90
2018-06-20T06:42:52.644Z,22.90
2018-06-20T06:45:21.203Z,22.90
2018-06-20T06:47:49.752Z,22.90
2018-06-20T06:50:18.289Z,22.80
2018-06-20T06:52:47.021Z,22.80
2018-06-20T06:55:15.592Z,22.80
2018-06-20T06:57:44.118Z,22.70
2018-06-20T07:00:12.657Z,22.60
2018-06-20T07:02:41.380Z,22.70
2018-06-20T07:05:09.931Z,22.90
2018-06-20T07:07:38.429Z,23.10
2018-06-20T07:10:07.026Z,23.20
2018-06-20T07:12:35.646Z,23.30
2018-06-20T07:15:04.217Z,23.30
2018-06-20T07:17:32.754Z,23.30
2018-06-20T07:20:01.300Z,23.30
2018-06-20T07:22:29.925Z,23.40
2018-06-20T07:24:58.467Z,23.50
2018-06-20T07:29:55.199Z,23.70
2018-06-20T07:32:23.742Z,23.80
2018-06-20T07:34:52.324Z,24.00
2018-06-20T07:37:20.822Z,24.00
2018-06-20T07:39:49.396Z,24.00
2018-06-20T07:42:18.000Z,24.10
2018-06-20T07:44:46.582Z,24.10
2018-06-20T07:47:15.138Z,24.10
2018-06-20T07:49:43.648Z,24.20
2018-06-20T07:52:12.208Z,24.20
2018-06-20T07:54:40.723Z,24.30
2018-06-20T07:57:09.212Z,24.60
2018-06-20T08:02:27.984Z,25.00
2018-06-20T08:05:02.018Z,24.90
2018-06-20T08:07:35.695Z,24.70
2018-06-20T08:10:09.704Z,24.70
2018-06-20T08:12:43.604Z,24.70
2018-06-20T08:15:13.944Z,24.70
2018-06-20T08:17:47.814Z,24.70
2018-06-20T08:20:20.966Z,24.70
2018-06-20T08:22:49.642Z,24.90
2018-06-20T08:25:18.151Z,25.10
2018-06-20T08:27:46.653Z,25.20
2018-06-20T08:30:15.199Z,25.20
2018-06-20T08:32:43.787Z,25.20
2018-06-20T08:35:12.318Z,25.20
2018-06-20T08:37:40.839Z,25.20
2018-06-20T08:40:09.390Z,25.30
2018-06-20T08:42:38.092Z,25.30
2018-06-20T08:45:06.620Z,25.40
2018-06-20T08:47:35.158Z,25.60
2018-06-20T08:50:03.689Z,25.60
2018-06-20T08:52:32.279Z,25.60
2018-06-20T08:55:00.834Z,25.60
2018-06-20T08:57:29.374Z,25.70
2018-06-20T08:59:59.365Z,25.90
2018-06-20T09:02:28.086Z,26.10
2018-06-20T09:05:01.906Z,25.80
2018-06-20T09:07:35.712Z,25.40
2018-06-20T09:10:09.607Z,25.20
2018-06-20T09:12:43.566Z,24.90
2018-06-20T09:15:17.411Z,24.90
2018-06-20T09:17:51.344Z,25.00
2018-06-20T09:20:19.972Z,25.20
2018-06-20T09:22:48.556Z,25.40
2018-06-20T09:25:17.131Z,25.50
2018-06-20T09:27:45.695Z,25.60
2018-06-20T09:30:14.207Z,25.50
2018-06-20T09:32:42.774Z,25.70
2018-06-20T09:35:11.314Z,26.00
2018-06-20T09:37:39.866Z,26.30
2018-06-20T09:40:08.972Z,26.50
2018-06-20T09:42:37.556Z,26.60
2018-06-20T09:45:06.098Z,26.60
2018-06-20T09:47:34.618Z,26.50
2018-06-20T09:50:08.476Z,26.30
2018-06-20T09:52:37.037Z,26.20
2018-06-20T09:55:05.613Z,26.40
2018-06-20T09:57:34.155Z,26.60
2018-06-20T10:00:08.206Z,26.70
2018-06-20T10:02:42.070Z,26.90
2018-06-20T10:05:15.892Z,26.90
2018-06-20T10:07:49.600Z,27.10
2018-06-20T10:10:23.404Z,27.20
2018-06-20T10:12:57.234Z,27.40
2018-06-20T10:15:25.826Z,27.50
2018-06-20T10:17:54.395Z,27.50
2018-06-20T10:20:27.472Z,27.40
2018-06-20T10:22:57.680Z,27.50
2018-06-20T10:25:26.355Z,27.60
2018-06-20T10:27:54.940Z,27.60
2018-06-20T10:30:23.846Z,27.80
2018-06-20T10:32:52.764Z,28.00
2018-06-20T10:35:21.645Z,28.20
2018-06-20T10:37:50.255Z,28.20
2018-06-20T10:40:19.142Z,28.20
2018-06-20T10:42:47.981Z,28.00
2018-06-20T10:46:22.841Z,27.90
2018-06-20T10:48:51.319Z,28.00
2018-06-20T10:51:19.894Z,28.00
2018-06-20T10:53:48.546Z,28.00
2018-06-20T10:56:21.474Z,27.70
2018-06-20T10:58:55.393Z,27.60
2018-06-20T11:01:29.080Z,27.80
2018-06-20T11:04:03.061Z,27.90
2018-06-20T11:06:36.935Z,27.90
2018-06-20T11:09:12.907Z,28.00
2018-06-20T11:11:46.803Z,28.20
2018-06-20T11:14:15.370Z,28.20
2018-06-20T11:16:43.887Z,28.50
2018-06-20T11:19:12.494Z,28.60
2018-06-20T11:21:41.128Z,28.40
2018-06-20T11:24:09.726Z,28.30
2018-06-20T11:26:38.308Z,28.50
2018-06-20T11:29:06.937Z,28.60
2018-06-20T11:31:35.475Z,28.60
2018-06-20T11:34:04.128Z,28.50
2018-06-20T11:36:32.670Z,28.50
2018-06-20T11:39:01.226Z,28.60
2018-06-20T11:41:29.816Z,28.60
2018-06-20T11:43:58.535Z,28.70
2018-06-20T11:46:32.457Z,28.70
2018-06-20T11:49:01.076Z,28.70
2018-06-20T11:51:29.597Z,28.70
2018-06-20T11:53:58.261Z,28.80
2018-06-20T11:56:26.863Z,28.60
2018-06-20T11:59:00.584Z,28.40
2018-06-20T12:01:34.409Z,28.20
2018-06-20T12:04:08.454Z,28.10
2018-06-20T12:06:42.374Z,28.20
2018-06-20T12:10:19.714Z,28.40
2018-06-20T12:12:53.677Z,28.60
2018-06-20T12:15:27.507Z,28.90
2018-06-20T12:18:01.298Z,29.10
2018-06-20T12:20:35.587Z,29.20
2018-06-20T12:23:09.546Z,29.20
2018-06-20T12:25:43.329Z,29.30
2018-06-20T12:28:17.167Z,29.50
2018-06-20T12:30:51.004Z,29.60
2018-06-20T12:33:25.069Z,29.60
2018-06-20T12:35:59.009Z,29.90
2018-06-20T12:38:32.772Z,30.00
2018-06-20T12:41:06.848Z,30.00
2018-06-20T12:44:40.501Z,30.10
2018-06-20T12:47:15.406Z,30.10
2018-06-20T12:49:48.258Z,30.10
2018-06-20T12:52:17.745Z,29.90
2018-06-20T12:54:46.299Z,29.80
2018-06-20T12:57:14.857Z,29.60
2018-06-20T12:59:43.480Z,29.50
2018-06-20T13:02:12.062Z,29.50
2018-06-20T13:04:40.615Z,29.90
2018-06-20T13:07:09.229Z,30.30
2018-06-20T13:09:37.833Z,30.50
2018-06-20T13:12:06.398Z,30.40
2018-06-20T13:14:34.884Z,30.30
2018-06-20T13:17:04.049Z,30.20
2018-06-20T13:19:32.671Z,30.20
2018-06-20T13:22:01.217Z,30.30
2018-06-20T13:24:29.815Z,30.70
2018-06-20T13:26:58.373Z,30.90
2018-06-20T13:29:26.911Z,31.10
2018-06-20T13:32:01.039Z,31.20
2018-06-20T13:34:35.026Z,31.20
2018-06-20T13:37:08.929Z,31.60
2018-06-20T13:39:42.739Z,32.20
2018-06-20T13:42:15.426Z,33.00
2018-06-20T13:44:44.989Z,37.10
2018-06-20T13:47:18.753Z,39.30
2018-06-20T13:49:47.310Z,39.70
2018-06-20T13:52:15.893Z,43.30
2018-06-20T13:54:44.393Z,46.70
2018-06-20T13:57:13.014Z,49.60
2018-06-20T13:59:41.612Z,51.40
2018-06-20T14:02:10.174Z,53.40
2018-06-20T14:04:38.727Z,52.10
2018-06-20T14:07:07.250Z,49.40
2018-06-20T14:09:37.876Z,49.50
2018-06-20T14:12:06.928Z,52.10
2018-06-20T14:14:35.418Z,54.80
2018-06-20T14:17:03.986Z,56.80
2018-06-20T14:20:39.599Z,58.30
2018-06-20T14:23:08.194Z,58.40
2018-06-20T14:25:38.094Z,60.00
2018-06-20T14:28:06.663Z,61.40
2018-06-20T14:30:40.663Z,61.50
2018-06-20T14:33:15.122Z,61.80
2018-06-20T14:35:49.077Z,57.30
2018-06-20T14:38:23.020Z,58.60
2018-06-20T14:40:56.980Z,59.50
2018-06-20T14:43:30.938Z,59.90
2018-06-20T14:46:04.850Z,60.20
2018-06-20T14:48:34.216Z,61.20
2018-06-20T14:51:02.912Z,61.10
2018-06-20T14:53:32.340Z,60.70
2018-06-20T14:56:00.944Z,60.80
2018-06-20T14:58:29.586Z,60.70
2018-06-20T15:00:58.762Z,60.10
2018-06-20T15:03:27.449Z,60.70
2018-06-20T15:05:57.277Z,60.20
2018-06-20T15:08:25.777Z,59.50
2018-06-20T15:10:54.296Z,60.10
2018-06-20T15:13:23.014Z,59.00
2018-06-20T15:15:52.269Z,57.50
2018-06-20T15:18:20.910Z,57.80
2018-06-20T15:20:49.972Z,58.30
2018-06-20T15:23:18.616Z,58.90
2018-06-20T15:25:53.184Z,58.70
2018-06-20T15:28:27.000Z,58.40
2018-06-20T15:31:00.918Z,57.70
2018-06-20T15:33:34.938Z,57.00
2018-06-20T15:36:09.432Z,57.40
2018-06-20T15:38:39.266Z,57.50
2018-06-20T15:41:07.863Z,57.40
2018-06-20T15:43:36.455Z,57.50
2018-06-20T15:46:06.916Z,58.10
2018-06-20T15:48:35.780Z,58.30
2018-06-20T15:51:04.408Z,57.90
2018-06-20T15:53:33.058Z,57.40
2018-06-20T15:56:01.625Z,57.00
2018-06-20T15:58:30.482Z,57.10
2018-06-20T16:00:59.023Z,57.80
2018-06-20T16:03:28.218Z,57.50
2018-06-20T16:05:58.010Z,56.50
2018-06-20T16:08:26.578Z,55.70
2018-06-20T16:10:55.205Z,54.80
2018-06-20T16:13:23.892Z,55.20
2018-06-20T16:15:52.461Z,55.20
2018-06-20T16:18:21.557Z,55.30
2018-06-20T16:20:55.324Z,54.50
2018-06-20T16:23:29.302Z,54.10
2018-06-20T16:26:03.075Z,53.90
2018-06-20T16:28:36.894Z,53.90
2018-06-20T16:31:06.913Z,55.00
2018-06-20T16:33:35.674Z,55.40
2018-06-20T16:36:04.246Z,55.00
2018-06-20T16:38:33.503Z,54.50
2018-06-20T16:41:02.005Z,54.20
2018-06-20T16:43:30.619Z,53.90
2018-06-20T16:45:59.141Z,53.50
2018-06-20T16:48:28.436Z,53.40
2018-06-20T16:50:58.678Z,52.90
2018-06-20T16:53:27.449Z,52.70
2018-06-20T16:55:56.072Z,51.50
2018-06-20T16:58:24.589Z,51.70
2018-06-20T17:00:58.061Z,52.00
2018-06-20T17:03:26.566Z,51.70
2018-06-20T17:05:56.176Z,51.50
2018-06-20T17:08:25.686Z,51.40
2018-06-20T17:10:54.779Z,50.90
2018-06-20T17:14:27.451Z,50.90
2018-06-20T17:18:02.977Z,51.10
2018-06-20T17:20:36.915Z,50.10
2018-06-20T17:23:10.833Z,49.00
2018-06-20T17:25:39.503Z,48.50
2018-06-20T17:28:09.949Z,48.40
2018-06-20T17:30:38.460Z,48.40
2018-06-20T17:33:07.107Z,48.00
2018-06-20T17:35:35.678Z,45.20
2018-06-20T17:38:04.286Z,42.00
2018-06-20T17:40:32.814Z,39.50
2018-06-20T17:43:01.555Z,37.40
2018-06-20T17:45:30.144Z,35.70
2018-06-20T17:47:58.786Z,34.20
2018-06-20T17:50:27.414Z,32.90
2018-06-20T17:52:56.172Z,32.00
2018-06-20T17:55:24.911Z,31.90
2018-06-20T17:57:53.460Z,33.30
2018-06-20T18:00:22.036Z,32.50
2018-06-20T18:02:50.669Z,31.70
2018-06-20T18:05:24.682Z,30.90
2018-06-20T18:07:58.380Z,30.30
2018-06-20T18:10:32.189Z,29.60
2018-06-20T18:13:02.876Z,29.10
2018-06-20T18:15:36.879Z,28.60
2018-06-20T18:18:06.873Z,28.20
2018-06-20T18:20:36.606Z,27.80
2018-06-20T18:23:05.265Z,27.50
2018-06-20T18:25:33.978Z,27.30
2018-06-20T18:28:02.583Z,27.10
2018-06-20T18:30:31.155Z,27.00
2018-06-20T18:32:59.913Z,26.80
2018-06-20T18:35:28.462Z,26.70
2018-06-20T18:37:57.911Z,26.50
2018-06-20T18:40:26.454Z,26.40
2018-06-20T18:42:55.055Z,26.20
2018-06-20T18:45:23.722Z,26.10
2018-06-20T18:47:57.703Z,26.00
2018-06-20T18:50:26.228Z,25.90
2018-06-20T18:52:55.661Z,25.80
2018-06-20T18:55:24.167Z,25.70
2018-06-20T18:57:58.026Z,25.50
2018-06-20T19:00:32.001Z,25.40
2018-06-20T19:03:05.907Z,25.30
2018-06-20T19:05:39.644Z,25.20
2018-06-20T19:08:13.478Z,25.00
2018-06-20T19:10:42.151Z,24.90
2018-06-20T19:13:10.868Z,24.80
2018-06-20T19:15:39.453Z,24.70
2018-06-20T19:18:07.996Z,24.50
2018-06-20T19:23:04.819Z,24.30
2018-06-20T19:25:33.368Z,24.20
2018-06-20T19:28:02.034Z,24.10
2018-06-20T19:30:30.614Z,24.00
2018-06-20T19:33:00.344Z,23.90
2018-06-20T19:35:28.977Z,23.80
2018-06-20T19:37:57.597Z,23.60
2018-06-20T19:40:26.358Z,23.50
2018-06-20T19:42:55.058Z,23.40
2018-06-20T19:45:23.656Z,23.30
2018-06-20T19:47:54.977Z,23.20
2018-06-20T19:50:23.551Z,23.10
2018-06-20T19:52:52.291Z,23.00
2018-06-20T19:55:20.867Z,22.90
2018-06-20T19:57:49.473Z,22.80
2018-06-20T20:00:18.007Z,22.70
2018-06-20T20:02:46.721Z,22.60
2018-06-20T20:05:15.299Z,22.50
2018-06-20T20:07:44.041Z,22.40
2018-06-20T20:10:12.635Z,22.30
2018-06-20T20:12:41.298Z,22.20
2018-06-20T20:15:09.866Z,22.10
2018-06-20T20:17:38.448Z,21.90
2018-06-20T20:20:07.832Z,21.80
2018-06-20T20:22:36.446Z,21.80
2018-06-20T20:25:05.182Z,21.60
2018-06-20T20:27:33.723Z,21.60
2018-06-20T20:30:02.277Z,21.40
2018-06-20T20:32:30.874Z,21.40
2018-06-20T20:34:59.446Z,21.30
2018-06-20T20:37:28.006Z,21.20
2018-06-20T20:39:57.372Z,21.20
2018-06-20T20:42:26.172Z,21.10
2018-06-20T20:44:54.806Z,21.10
2018-06-20T20:47:23.310Z,21.00
2018-06-20T20:49:51.886Z,21.00
2018-06-20T20:52:20.419Z,20.90
2018-06-20T20:54:49.711Z,20.90
2018-06-20T20:57:18.280Z,20.80
2018-06-20T20:59:46.836Z,20.80
2018-06-20T21:02:15.404Z,20.70
2018-06-20T21:04:44.100Z,20.70
2018-06-20T21:07:12.591Z,20.60
2018-06-20T21:09:41.167Z,20.60
2018-06-20T21:12:09.795Z,20.60
2018-06-20T21:14:38.378Z,20.50
2018-06-20T21:17:06.880Z,20.50
2018-06-20T21:19:35.523Z,20.50
2018-06-20T21:22:04.033Z,20.50
2018-06-20T21:24:32.909Z,20.50
2018-06-20T21:27:01.591Z,20.50
2018-06-20T21:29:30.235Z,20.40
2018-06-20T21:31:58.968Z,20.40
2018-06-20T21:34:27.556Z,20.40
2018-06-20T21:36:59.014Z,20.40
2018-06-20T21:39:28.342Z,20.40
2018-06-20T21:41:56.932Z,20.40
2018-06-20T21:44:25.667Z,20.40
2018-06-20T21:46:54.296Z,20.40
2018-06-20T21:49:27.094Z,20.40
2018-06-20T21:51:55.836Z,20.40
2018-06-20T21:54:24.633Z,20.40
2018-06-20T21:56:53.183Z,20.30
2018-06-20T21:59:21.829Z,20.20
2018-06-20T22:01:50.401Z,20.10
2018-06-20T22:04:19.246Z,20.10
2018-06-20T22:06:47.838Z,20.00
2018-06-20T22:09:16.445Z,19.80
2018-06-20T22:11:45.052Z,19.80
2018-06-20T22:16:41.842Z,19.70
2018-06-20T22:19:10.752Z,19.70
2018-06-20T22:21:39.336Z,19.60
2018-06-20T22:24:07.994Z,19.60
2018-06-20T22:26:37.073Z,19.50
2018-06-20T22:29:05.661Z,19.40
2018-06-20T22:31:34.333Z,19.40
2018-06-20T22:34:03.065Z,19.40
2018-06-20T22:36:31.605Z,19.40
2018-06-20T22:39:00.252Z,19.40
2018-06-20T22:41:28.808Z,19.40
2018-06-20T22:43:57.495Z,19.40
2018-06-20T22:46:26.201Z,19.30
2018-06-20T22:48:54.792Z,19.30
2018-06-20T22:51:23.382Z,19.30
2018-06-20T23:33:27.864Z,18.60
2018-06-20T23:35:56.765Z,18.90
2018-06-20T23:38:25.439Z,18.80
2018-06-20T23:40:55.778Z,18.70
2018-06-20T23:43:24.373Z,18.60
2018-06-20T23:45:52.952Z,18.50
2018-06-20T23:48:21.559Z,18.40
2018-06-20T23:50:52.588Z,18.40
2018-06-20T23:53:22.184Z,18.30
2018-06-20T23:55:51.084Z,18.20
2018-06-20T23:58:20.039Z,18.20
